createdAt,value
2018-06-12T00:01:50.437Z,10.47
2018-06-12T00:04:24.856Z,10.87
2018-06-12T00:06:59.176Z,10.47
2018-06-12T00:09:33.718Z,11.10
2018-06-12T00:12:08.171Z,10.70
2018-06-12T00:14:42.725Z,12.23
2018-06-12T00:17:17.464Z,11.13
2018-06-12T00:19:52.077Z,11.73
2018-06-12T00:22:26.626Z,12.47
2018-06-12T00:25:01.284Z,11.93
2018-06-12T00:27:35.661Z,11.40
2018-06-12T00:30:10.200Z,11.80
2018-06-12T00:32:44.632Z,11.83
2018-06-12T00:35:18.980Z,11.93
2018-06-12T00:37:53.508Z,12.10
2018-06-12T00:40:28.176Z,13.03
2018-06-12T00:43:02.534Z,12.17
2018-06-12T00:45:37.136Z,13.17
2018-06-12T00:48:11.594Z,12.17
2018-06-12T00:50:46.103Z,12.97
2018-06-12T00:53:20.846Z,14.00
2018-06-12T00:55:55.268Z,13.80
2018-06-12T00:58:29.709Z,13.43
2018-06-12T01:01:04.557Z,13.90
2018-06-12T01:03:39.529Z,14.87
2018-06-12T01:06:14.033Z,13.93
2018-06-12T01:08:48.612Z,13.43
2018-06-12T01:11:23.137Z,13.27
2018-06-12T01:13:57.645Z,14.77
2018-06-12T01:16:32.166Z,14.77
2018-06-12T01:19:06.760Z,15.80
2018-06-12T01:21:41.320Z,14.00
2018-06-12T01:24:15.890Z,14.93
2018-06-12T01:26:50.362Z,16.07
2018-06-12T01:29:24.765Z,16.40
2018-06-12T01:31:59.253Z,16.67
2018-06-12T01:34:33.822Z,15.43
2018-06-12T01:37:08.320Z,16.70
2018-06-12T01:39:42.860Z,16.40
2018-06-12T01:42:17.260Z,16.00
2018-06-12T01:44:51.565Z,16.77
2018-06-12T01:47:25.961Z,17.50
2018-06-12T01:50:00.561Z,17.37
2018-06-12T01:52:35.170Z,17.50
2018-06-12T01:55:09.634Z,17.67
2018-06-12T01:57:44.313Z,17.47
2018-06-12T02:00:18.744Z,16.90
2018-06-12T02:02:53.148Z,17.87
2018-06-12T02:05:27.768Z,18.73
2018-06-12T02:08:02.435Z,18.23
2018-06-12T02:10:36.798Z,17.63
2018-06-12T02:13:11.171Z,18.87
2018-06-12T02:15:45.856Z,18.97
2018-06-12T02:18:20.510Z,18.63
2018-06-12T02:20:55.413Z,19.07
2018-06-12T02:23:29.796Z,17.63
2018-06-12T02:26:04.239Z,19.83
2018-06-12T02:28:38.747Z,19.57
2018-06-12T02:31:13.249Z,19.77
2018-06-12T02:33:47.638Z,18.07
2018-06-12T02:36:22.085Z,18.83
2018-06-12T02:38:56.657Z,19.97
2018-06-12T02:41:31.430Z,19.13
2018-06-12T02:44:06.038Z,20.33
2018-06-12T02:46:40.589Z,19.53
2018-06-12T02:49:15.073Z,19.80
2018-06-12T02:51:49.595Z,20.47
2018-06-12T02:54:24.222Z,20.57
2018-06-12T02:56:58.780Z,19.50
2018-06-12T02:59:33.237Z,20.73
2018-06-12T03:02:07.731Z,20.83
2018-06-12T03:04:42.086Z,20.77
2018-06-12T03:07:16.440Z,21.27
2018-06-12T03:09:51.273Z,22.40
2018-06-12T03:12:25.874Z,21.60
2018-06-12T03:15:00.531Z,21.80
2018-06-12T03:17:35.133Z,21.47
2018-06-12T03:20:09.821Z,21.60
2018-06-12T03:22:44.237Z,21.47
2018-06-12T03:25:18.804Z,22.27
2018-06-12T03:27:53.260Z,23.03
2018-06-12T03:30:28.169Z,21.70
2018-06-12T03:33:02.701Z,21.63
2018-06-12T03:35:37.107Z,23.07
2018-06-12T03:38:11.605Z,21.77
2018-06-12T03:40:45.976Z,23.20
2018-06-12T03:43:20.407Z,23.60
2018-06-12T03:45:55.066Z,23.43
2018-06-12T03:48:29.829Z,23.77
2018-06-12T03:51:04.470Z,24.20
2018-06-12T03:53:38.959Z,23.73
2018-06-12T03:56:13.451Z,24.40
2018-06-12T03:58:47.842Z,24.07
2018-06-12T04:01:22.289Z,23.80
2018-06-12T04:03:56.920Z,24.30
2018-06-12T04:06:35.094Z,24.03
2018-06-12T04:09:09.756Z,24.17
2018-06-12T04:11:44.170Z,25.37
2018-06-12T04:14:19.012Z,25.40
2018-06-12T04:16:54.006Z,25.37
2018-06-12T04:19:28.556Z,27.00
2018-06-12T04:22:02.981Z,24.90
2018-06-12T04:24:37.527Z,26.90
2018-06-12T04:27:12.081Z,25.97
2018-06-12T04:29:46.569Z,25.43
2018-06-12T04:32:21.009Z,25.93
2018-06-12T04:34:55.400Z,26.93
2018-06-12T04:37:29.829Z,26.23
2018-06-12T04:40:04.224Z,26.87
2018-06-12T04:42:39.065Z,27.90
2018-06-12T04:45:13.432Z,26.67
2018-06-12T04:47:47.843Z,26.97
2018-06-12T04:50:22.348Z,24.77
2018-06-12T04:52:56.937Z,24.53
2018-06-12T04:55:31.593Z,23.10
2018-06-12T04:58:06.169Z,25.23
2018-06-12T05:00:40.707Z,24.67
2018-06-12T05:03:15.200Z,24.83
2018-06-12T05:05:49.817Z,24.30
2018-06-12T05:08:24.344Z,25.23
2018-06-12T05:10:58.692Z,24.33
2018-06-12T05:13:33.382Z,26.27
2018-06-12T05:16:07.916Z,26.07
2018-06-12T05:18:42.449Z,26.23
2018-06-12T05:21:17.444Z,25.10
2018-06-12T05:23:51.828Z,24.63
2018-06-12T05:26:26.346Z,25.97
2018-06-12T05:29:00.977Z,25.63
2018-06-12T05:31:35.485Z,26.30
2018-06-12T05:34:10.077Z,27.83
2018-06-12T05:36:44.636Z,25.73
2018-06-12T05:39:19.113Z,25.87
2018-06-12T05:41:53.571Z,24.97
2018-06-12T05:44:27.963Z,24.07
2018-06-12T05:47:02.558Z,24.10
2018-06-12T05:49:36.988Z,22.87
2018-06-12T05:52:11.485Z,21.90
2018-06-12T05:54:46.079Z,21.73
2018-06-12T05:57:20.528Z,22.93
2018-06-12T05:59:54.958Z,21.87
2018-06-12T06:02:29.303Z,22.73
2018-06-12T06:05:03.818Z,21.40
2018-06-12T06:07:38.342Z,21.20
2018-06-12T06:10:12.874Z,21.30
2018-06-12T06:12:47.646Z,21.87
2018-06-12T06:15:22.095Z,22.73
2018-06-12T06:17:56.577Z,23.77
2018-06-12T06:20:31.020Z,24.33
2018-06-12T06:23:05.376Z,22.33
2018-06-12T06:25:39.724Z,23.43
2018-06-12T06:28:14.133Z,22.73
2018-06-12T06:30:48.820Z,22.27
2018-06-12T06:33:23.306Z,22.50
2018-06-12T06:35:57.701Z,23.17
2018-06-12T06:38:32.076Z,21.33
2018-06-12T06:41:06.433Z,24.23
2018-06-12T06:43:41.215Z,22.57
2018-06-12T06:46:15.814Z,23.77
2018-06-12T06:48:50.356Z,23.03
2018-06-12T06:51:24.845Z,22.03
2018-06-12T06:53:59.371Z,22.43
2018-06-12T06:56:33.889Z,22.40
2018-06-12T06:59:08.464Z,22.87
2018-06-12T07:01:43.009Z,22.80
2018-06-12T07:04:17.452Z,22.60
2018-06-12T07:06:51.953Z,19.07
2018-06-12T07:09:26.404Z,19.70
2018-06-12T07:12:00.856Z,19.33
2018-06-12T07:14:35.231Z,19.07
2018-06-12T07:17:09.993Z,17.97
2018-06-12T07:19:44.629Z,15.37
2018-06-12T07:22:18.976Z,16.40
2018-06-12T07:24:53.697Z,16.30
2018-06-12T07:27:28.300Z,15.57
2018-06-12T07:30:02.836Z,14.47
2018-06-12T07:32:37.536Z,13.93
2018-06-12T07:35:12.045Z,14.77
2018-06-12T07:37:46.555Z,14.17
2018-06-12T07:40:21.169Z,15.07
2018-06-12T07:42:55.597Z,13.43
2018-06-12T07:45:30.188Z,14.87
2018-06-12T07:48:04.881Z,13.83
2018-06-12T07:50:39.433Z,13.53
2018-06-12T07:53:14.099Z,14.50
2018-06-12T07:55:48.762Z,13.30
2018-06-12T07:58:23.392Z,13.63
2018-06-12T08:00:57.806Z,12.17
2018-06-12T08:03:32.096Z,12.27
2018-06-12T08:06:06.650Z,12.73
2018-06-12T08:08:41.347Z,12.03
2018-06-12T08:11:15.973Z,11.90
2018-06-12T08:13:50.285Z,11.97
2018-06-12T08:16:24.745Z,11.93
2018-06-12T08:18:59.248Z,11.60
2018-06-12T08:21:33.805Z,10.03
2018-06-12T08:24:08.159Z,10.80
2018-06-12T08:26:42.573Z,10.93
2018-06-12T08:29:17.233Z,10.03
2018-06-12T08:31:51.744Z,10.03
2018-06-12T08:34:26.076Z,10.53
2018-06-12T08:37:00.767Z,9.23
2018-06-12T08:39:35.249Z,9.47
2018-06-12T08:42:09.757Z,8.63
2018-06-12T08:44:44.161Z,9.50
2018-06-12T08:47:18.645Z,8.63
2018-06-12T08:49:53.112Z,7.80
2018-06-12T08:52:27.635Z,7.60
2018-06-12T08:55:02.042Z,7.37
2018-06-12T08:57:36.582Z,9.00
2018-06-12T09:00:11.185Z,7.67
2018-06-12T09:02:45.736Z,8.00
2018-06-12T09:05:20.159Z,7.40
2018-06-12T09:07:54.839Z,7.47
2018-06-12T09:10:29.561Z,8.17
2018-06-12T09:13:04.221Z,7.90
2018-06-12T09:15:38.561Z,7.03
2018-06-12T09:18:13.335Z,7.20
2018-06-12T09:20:47.775Z,7.60
2018-06-12T09:23:22.214Z,7.97
2018-06-12T09:25:56.662Z,7.73
2018-06-12T09:28:31.049Z,7.37
2018-06-12T09:31:05.473Z,7.13
2018-06-12T09:33:40.001Z,7.17
2018-06-12T09:36:19.964Z,8.37
2018-06-12T09:38:54.538Z,7.77
2018-06-12T09:41:29.108Z,9.00
2018-06-12T09:44:03.583Z,8.17
2018-06-12T09:46:38.159Z,8.20
2018-06-12T09:49:12.528Z,8.70
2018-06-12T09:51:46.957Z,8.40
2018-06-12T09:54:21.955Z,8.63
2018-06-12T09:56:56.449Z,9.00
2018-06-12T09:59:31.085Z,8.67
2018-06-12T10:02:06.102Z,8.90
2018-06-12T10:04:40.634Z,9.50
2018-06-12T10:07:15.000Z,8.73
2018-06-12T10:09:49.514Z,8.53
2018-06-12T10:12:24.073Z,8.90
2018-06-12T10:14:59.074Z,10.00
2018-06-12T10:17:33.562Z,9.27
2018-06-12T10:20:08.244Z,9.60
2018-06-12T10:22:42.729Z,9.37
2018-06-12T10:25:17.165Z,9.00
2018-06-12T10:27:51.760Z,10.70
2018-06-12T10:30:26.181Z,9.63
2018-06-12T10:33:00.600Z,10.53
2018-06-12T10:35:35.203Z,10.67
2018-06-12T10:38:09.733Z,9.83
2018-06-12T10:40:44.092Z,9.90
2018-06-12T10:43:18.690Z,10.30
2018-06-12T10:45:53.096Z,10.10
2018-06-12T10:48:27.631Z,11.07
2018-06-12T10:51:02.007Z,11.40
2018-06-12T10:53:36.622Z,11.77
2018-06-12T10:56:11.015Z,12.70
2018-06-12T10:58:45.436Z,11.87
2018-06-12T11:01:19.948Z,12.10
2018-06-12T11:03:54.883Z,12.17
2018-06-12T11:06:29.337Z,13.00
2018-06-12T11:09:04.760Z,12.10
2018-06-12T11:11:39.099Z,13.37
2018-06-12T11:14:13.638Z,12.33
2018-06-12T11:16:55.400Z,12.40
2018-06-12T11:19:29.842Z,12.23
2018-06-12T11:22:04.340Z,11.77
2018-06-12T11:24:38.798Z,11.73
2018-06-12T11:27:13.194Z,12.07
2018-06-12T11:29:47.688Z,10.87
2018-06-12T11:32:22.468Z,10.93
2018-06-12T11:34:57.078Z,11.43
2018-06-12T11:37:31.577Z,11.37
2018-06-12T11:40:06.018Z,10.10
2018-06-12T11:42:40.632Z,10.37
2018-06-12T11:45:15.671Z,9.47
2018-06-12T11:47:50.255Z,8.80
2018-06-12T11:50:24.982Z,9.90
2018-06-12T11:52:59.389Z,9.83
2018-06-12T11:55:33.863Z,9.63
2018-06-12T11:58:08.428Z,9.27
2018-06-12T12:00:43.142Z,9.27
2018-06-12T12:03:17.767Z,9.13
2018-06-12T12:05:52.133Z,8.67
2018-06-12T12:08:26.547Z,9.13
2018-06-12T12:11:01.093Z,9.40
2018-06-12T12:13:35.541Z,9.33
2018-06-12T12:16:09.919Z,9.33
2018-06-12T12:18:44.288Z,8.73
2018-06-12T12:21:18.705Z,8.33
2018-06-12T12:23:53.074Z,8.53
2018-06-12T12:26:27.483Z,9.53
2018-06-12T12:29:02.084Z,12.03
2018-06-12T12:31:36.745Z,10.67
2018-06-12T12:34:11.783Z,10.00
2018-06-12T12:36:46.311Z,10.10
2018-06-12T12:39:20.788Z,11.40
2018-06-12T12:41:55.356Z,11.93
2018-06-12T12:44:29.963Z,13.33
2018-06-12T12:47:04.908Z,13.70
2018-06-12T12:49:39.604Z,13.83
2018-06-12T12:52:14.123Z,14.87
2018-06-12T12:54:48.771Z,16.60
2018-06-12T12:57:23.303Z,16.40
2018-06-12T12:59:58.094Z,17.40
2018-06-12T13:02:32.870Z,16.47
2018-06-12T13:05:07.857Z,18.50
2018-06-12T13:07:42.287Z,16.70
2018-06-12T13:10:16.804Z,17.40
2018-06-12T13:12:51.424Z,16.07
2018-06-12T13:15:25.923Z,16.27
2018-06-12T13:18:00.274Z,17.33
2018-06-12T13:20:34.648Z,16.40
2018-06-12T13:23:09.107Z,16.97
2018-06-12T13:25:44.057Z,16.80
2018-06-12T13:28:18.788Z,17.23
2018-06-12T13:30:53.467Z,17.33
2018-06-12T13:33:27.986Z,16.93
2018-06-12T13:36:02.632Z,16.97
2018-06-12T13:38:37.155Z,15.67
2018-06-12T13:41:11.607Z,14.37
2018-06-12T13:43:46.125Z,13.57
2018-06-12T13:46:20.549Z,12.70
2018-06-12T13:48:54.986Z,11.87
2018-06-12T13:51:29.503Z,11.73
2018-06-12T13:54:04.460Z,11.33
2018-06-12T13:56:38.883Z,10.47
2018-06-12T13:59:13.368Z,11.40
2018-06-12T14:01:47.809Z,11.60
2018-06-12T14:04:22.515Z,10.97
2018-06-12T14:06:57.254Z,11.30
2018-06-12T14:09:31.756Z,11.13
2018-06-12T14:12:06.423Z,11.83
2018-06-12T14:14:41.191Z,12.40
2018-06-12T14:17:15.645Z,12.97
2018-06-12T14:19:50.280Z,12.97
2018-06-12T14:22:24.689Z,12.53
2018-06-12T14:24:59.098Z,12.53
2018-06-12T14:27:33.478Z,13.33
2018-06-12T14:30:07.954Z,12.93
2018-06-12T14:32:42.349Z,14.37
2018-06-12T14:35:16.945Z,14.40
2018-06-12T14:37:51.661Z,14.57
2018-06-12T14:40:26.366Z,13.37
2018-06-12T14:43:00.913Z,15.67
2018-06-12T14:45:35.269Z,15.77
2018-06-12T14:48:09.824Z,14.63
2018-06-12T14:50:44.601Z,15.47
2018-06-12T14:53:19.111Z,15.17
2018-06-12T14:55:53.576Z,14.97
2018-06-12T14:58:28.028Z,14.50
2018-06-12T15:01:02.428Z,13.47
2018-06-12T15:03:37.001Z,14.10
2018-06-12T15:06:11.499Z,13.67
2018-06-12T15:08:46.037Z,13.87
2018-06-12T15:11:20.609Z,14.07
2018-06-12T15:13:55.000Z,14.67
2018-06-12T15:16:29.470Z,15.20
2018-06-12T15:19:03.987Z,15.37
2018-06-12T15:21:38.538Z,15.60
2018-06-12T15:24:12.995Z,15.37
2018-06-12T15:26:47.601Z,14.37
2018-06-12T15:29:22.209Z,16.13
2018-06-12T15:31:56.757Z,15.97
2018-06-12T15:34:31.325Z,17.27
2018-06-12T15:37:06.228Z,17.17
2018-06-12T15:39:40.688Z,16.97
2018-06-12T15:42:15.098Z,17.57
2018-06-12T15:44:49.590Z,17.07
2018-06-12T15:47:24.197Z,16.70
2018-06-12T15:49:58.632Z,18.03
2018-06-12T15:52:33.042Z,18.40
2018-06-12T15:55:07.609Z,17.70
2018-06-12T15:57:42.037Z,17.97
2018-06-12T16:00:16.391Z,18.03
2018-06-12T16:02:50.783Z,17.70
2018-06-12T16:05:25.169Z,16.93
2018-06-12T16:07:59.642Z,16.80
2018-06-12T16:10:34.073Z,17.10
2018-06-12T16:13:08.556Z,16.03
2018-06-12T16:15:42.947Z,16.80
2018-06-12T16:18:17.541Z,15.50
2018-06-12T16:20:52.125Z,15.07
2018-06-12T16:23:26.755Z,14.63
2018-06-12T16:26:01.834Z,15.40
2018-06-12T16:28:36.258Z,13.57
2018-06-12T16:31:10.760Z,15.43
2018-06-12T16:33:45.306Z,14.87
2018-06-12T16:36:19.761Z,13.57
2018-06-12T16:38:54.388Z,13.23
2018-06-12T16:41:29.028Z,13.13
2018-06-12T16:44:03.395Z,12.87
2018-06-12T16:46:37.840Z,13.83
2018-06-12T16:49:12.319Z,13.10
2018-06-12T16:51:46.965Z,14.57
2018-06-12T16:54:21.426Z,13.93
2018-06-12T16:56:55.925Z,13.70
2018-06-12T16:59:30.556Z,11.93
2018-06-12T17:02:05.125Z,11.57
2018-06-12T17:04:39.550Z,10.97
2018-06-12T17:07:13.775Z,10.57
2018-06-12T17:09:48.033Z,10.93
2018-06-12T17:12:22.512Z,10.00
2018-06-12T17:14:56.891Z,9.80
2018-06-12T17:17:31.292Z,9.40
2018-06-12T17:20:05.760Z,10.90
2018-06-12T17:22:40.132Z,11.00
2018-06-12T17:25:14.689Z,11.70
2018-06-12T17:27:48.993Z,11.07
2018-06-12T17:30:23.375Z,11.67
2018-06-12T17:32:57.843Z,11.53
2018-06-12T17:35:32.260Z,11.87
2018-06-12T17:38:06.689Z,11.93
2018-06-12T17:40:41.045Z,12.47
2018-06-12T17:43:15.303Z,12.47
2018-06-12T17:45:49.708Z,12.33
2018-06-12T17:48:23.994Z,12.73
2018-06-12T17:50:58.686Z,13.03
2018-06-12T17:56:31.672Z,12.20
2018-06-12T17:59:05.953Z,12.03
2018-06-12T18:01:40.252Z,12.27
2018-06-12T18:04:14.640Z,13.03
2018-06-12T18:06:48.900Z,13.17
2018-06-12T18:09:23.179Z,12.27
2018-06-12T18:11:57.887Z,13.33
2018-06-12T18:14:32.392Z,12.70
2018-06-12T18:17:07.011Z,13.43
2018-06-12T18:19:41.650Z,13.60
2018-06-12T18:22:16.244Z,14.73
2018-06-12T18:24:50.855Z,14.33
2018-06-12T18:27:25.412Z,14.80
2018-06-12T18:29:59.876Z,13.57
2018-06-12T18:32:34.303Z,14.70
2018-06-12T18:35:08.843Z,14.57
2018-06-12T18:37:43.326Z,13.97
2018-06-12T18:40:18.124Z,13.87
2018-06-12T18:42:52.612Z,14.10
2018-06-12T18:45:26.973Z,15.00
2018-06-12T18:48:01.408Z,14.97
2018-06-12T18:50:35.964Z,15.17
2018-06-12T18:53:10.446Z,15.93
2018-06-12T18:55:44.828Z,16.07
2018-06-12T18:58:19.266Z,17.73
2018-06-12T19:00:53.711Z,15.80
2018-06-12T19:03:28.628Z,15.90
2018-06-12T19:06:03.148Z,14.80
2018-06-12T19:08:37.600Z,16.17
2018-06-12T19:11:12.164Z,17.73
2018-06-12T19:13:46.507Z,17.10
2018-06-12T19:16:21.023Z,16.43
2018-06-12T19:18:56.126Z,16.90
2018-06-12T19:21:30.966Z,16.60
2018-06-12T19:24:05.825Z,20.10
2018-06-12T19:26:40.322Z,19.10
2018-06-12T19:29:14.760Z,16.00
2018-06-12T19:31:49.189Z,17.10
2018-06-12T19:34:23.723Z,16.47
2018-06-12T19:36:58.560Z,15.87
2018-06-12T19:39:33.145Z,17.20
2018-06-12T19:42:07.553Z,15.80
2018-06-12T19:44:42.144Z,17.60
2018-06-12T19:47:16.586Z,14.47
2018-06-12T19:49:51.265Z,15.63
2018-06-12T19:52:26.082Z,14.93
2018-06-12T19:55:00.648Z,15.67
2018-06-12T19:57:35.092Z,15.47
2018-06-12T20:00:09.501Z,14.97
2018-06-12T20:02:43.889Z,15.43
2018-06-12T20:05:18.502Z,15.27
2018-06-12T20:07:53.055Z,15.53
2018-06-12T20:10:27.769Z,15.10
2018-06-12T20:13:02.303Z,14.53
2018-06-12T20:15:36.581Z,13.70
2018-06-12T20:18:11.263Z,13.37
2018-06-12T20:20:45.690Z,13.77
2018-06-12T20:23:20.284Z,13.30
2018-06-12T20:25:54.892Z,13.30
2018-06-12T20:28:29.567Z,13.27
2018-06-12T20:31:04.100Z,14.73
2018-06-12T20:33:38.739Z,14.50
2018-06-12T20:36:13.321Z,14.13
2018-06-12T20:38:47.784Z,14.57
2018-06-12T20:41:22.225Z,15.30
2018-06-12T20:43:56.656Z,14.67
2018-06-12T20:46:31.328Z,15.00
2018-06-12T20:49:05.714Z,14.43
2018-06-12T20:51:40.172Z,14.07
2018-06-12T20:54:14.688Z,16.30
2018-06-12T20:56:49.423Z,16.43
2018-06-12T20:59:23.881Z,15.53
2018-06-12T21:01:58.446Z,14.93
2018-06-12T21:04:33.049Z,14.43
2018-06-12T21:07:08.738Z,16.77
2018-06-12T21:09:43.168Z,14.97
2018-06-12T21:12:17.672Z,14.90
2018-06-12T21:14:52.203Z,14.53
2018-06-12T21:17:26.847Z,14.27
2018-06-12T21:20:01.500Z,15.00
2018-06-12T21:22:36.149Z,14.37
2018-06-12T21:25:10.835Z,15.67
2018-06-12T21:27:45.430Z,13.93
2018-06-12T21:30:20.039Z,14.20
2018-06-12T21:32:54.590Z,14.73
2018-06-12T21:35:29.001Z,13.63
2018-06-12T21:38:03.416Z,14.37
2018-06-12T21:40:37.861Z,14.67
2018-06-12T21:43:12.322Z,13.93
2018-06-12T21:45:46.950Z,12.43
2018-06-12T21:48:21.581Z,13.83
2018-06-12T21:50:56.080Z,14.43
2018-06-12T21:53:30.699Z,13.73
2018-06-12T21:56:05.027Z,13.70
2018-06-12T21:58:39.404Z,12.17
2018-06-12T22:01:13.915Z,11.37
2018-06-12T22:03:48.443Z,10.43
2018-06-12T22:06:22.879Z,10.63
2018-06-12T22:08:57.315Z,9.57
2018-06-12T22:11:31.809Z,9.70
2018-06-12T22:14:06.284Z,9.10
2018-06-12T22:16:41.119Z,8.63
2018-06-12T22:19:15.694Z,8.23
2018-06-12T22:21:50.025Z,8.23
2018-06-12T22:24:27.110Z,8.37
2018-06-12T22:27:01.540Z,8.60
2018-06-12T22:29:35.936Z,7.83
2018-06-12T22:32:10.340Z,8.10
2018-06-12T22:34:44.668Z,8.40
2018-06-12T22:37:19.313Z,8.60
2018-06-12T22:39:53.813Z,8.00
2018-06-12T22:42:28.174Z,7.90
2018-06-12T22:45:02.681Z,8.87
2018-06-12T22:47:37.305Z,10.07
2018-06-12T22:50:11.772Z,10.03
2018-06-12T22:52:46.236Z,10.87
2018-06-12T22:55:20.771Z,10.50
2018-06-12T22:57:55.256Z,10.13
2018-06-12T23:00:29.703Z,9.43
2018-06-12T23:03:04.276Z,10.03
2018-06-12T23:05:38.840Z,9.20
2018-06-12T23:08:13.288Z,9.53
2018-06-12T23:10:47.712Z,9.17
2018-06-12T23:13:22.124Z,8.57
2018-06-12T23:15:56.668Z,8.40
2018-06-12T23:18:31.446Z,9.10
2018-06-12T23:21:17.291Z,8.30
2018-06-12T23:23:51.824Z,7.63
2018-06-12T23:26:26.428Z,7.90
2018-06-12T23:29:01.011Z,7.90
2018-06-12T23:31:35.436Z,7.57
2018-06-12T23:34:09.876Z,7.27
2018-06-12T23:36:44.670Z,7.47
2018-06-12T23:39:19.368Z,7.50
2018-06-12T23:41:53.908Z,7.60
2018-06-12T23:44:28.399Z,7.97
2018-06-12T23:47:02.818Z,7.60
2018-06-12T23:49:37.390Z,7.37
2018-06-12T23:52:12.029Z,6.47
2018-06-12T23:54:46.632Z,7.03
2018-06-12T23:57:21.161Z,6.37
2018-06-12T23:59:55.588Z,6.40
